sensor_id;sensor_type;location;lat;lon;timestamp;P1;durP1;ratioP1;P2;durP2;ratioP2
63112;SDS011;49206;48.020;21.378;2022-07-05T00:01:36;4.93;;;3.20;;
63112;SDS011;49206;48.020;21.378;2022-07-05T00:11:38;4.45;;;3.72;;
63112;SDS011;49206;48.020;21.378;2022-07-05T00:21:40;3.78;;;3.45;;
63112;SDS011;49206;48.020;21.378;2022-07-05T00:31:43;3.35;;;3.10;;
63112;SDS011;49206;48.020;21.378;2022-07-05T00:41:46;5.38;;;3.28;;
63112;SDS011;49206;48.020;21.378;2022-07-05T00:51:49;5.10;;;3.35;;
63112;SDS011;49206;48.020;21.378;2022-07-05T01:02:12;4.55;;;3.45;;
63112;SDS011;49206;48.020;21.378;2022-07-05T01:12:21;4.22;;;3.20;;
63112;SDS011;49206;48.020;21.378;2022-07-05T01:22:25;3.78;;;3.47;;
63112;SDS011;49206;48.020;21.378;2022-07-05T01:32:28;5.05;;;3.80;;
63112;SDS011;49206;48.020;21.378;2022-07-05T01:42:31;4.43;;;3.70;;
63112;SDS011;49206;48.020;21.378;2022-07-05T01:52:34;3.60;;;3.30;;
63112;SDS011;49206;48.020;21.378;2022-07-05T02:02:41;4.65;;;3.60;;
63112;SDS011;49206;48.020;21.378;2022-07-05T02:12:44;3.55;;;3.22;;
63112;SDS011;49206;48.020;21.378;2022-07-05T02:22:47;4.00;;;3.60;;
63112;SDS011;49206;48.020;21.378;2022-07-05T02:32:50;3.97;;;3.58;;
63112;SDS011;49206;48.020;21.378;2022-07-05T02:42:52;4.38;;;3.35;;
63112;SDS011;49206;48.020;21.378;2022-07-05T02:52:55;7.65;;;3.63;;
63112;SDS011;49206;48.020;21.378;2022-07-05T03:02:58;5.32;;;3.95;;
63112;SDS011;49206;48.020;21.378;2022-07-05T03:13:02;5.40;;;3.78;;
63112;SDS011;49206;48.020;21.378;2022-07-05T03:23:05;5.38;;;3.70;;
63112;SDS011;49206;48.020;21.378;2022-07-05T03:33:15;4.38;;;3.97;;
63112;SDS011;49206;48.020;21.378;2022-07-05T03:43:21;5.20;;;3.72;;
63112;SDS011;49206;48.020;21.378;2022-07-05T03:53:23;4.43;;;3.70;;
63112;SDS011;49206;48.020;21.378;2022-07-05T04:03:27;4.25;;;3.60;;
63112;SDS011;49206;48.020;21.378;2022-07-05T04:13:31;4.57;;;3.47;;
63112;SDS011;49206;48.020;21.378;2022-07-05T04:23:34;5.55;;;4.05;;
63112;SDS011;49206;48.020;21.378;2022-07-05T04:33:38;7.78;;;4.28;;
63112;SDS011;49206;48.020;21.378;2022-07-05T04:43:41;6.80;;;4.28;;
63112;SDS011;49206;48.020;21.378;2022-07-05T04:53:46;5.45;;;4.18;;
63112;SDS011;49206;48.020;21.378;2022-07-05T05:03:49;6.35;;;4.15;;
63112;SDS011;49206;48.020;21.378;2022-07-05T05:13:56;4.32;;;3.92;;
63112;SDS011;49206;48.020;21.378;2022-07-05T05:23:59;4.07;;;3.70;;
63112;SDS011;49206;48.020;21.378;2022-07-05T05:34:02;4.72;;;4.22;;
63112;SDS011;49206;48.020;21.378;2022-07-05T05:44:05;4.78;;;3.83;;
63112;SDS011;49206;48.020;21.378;2022-07-05T05:54:08;7.43;;;4.43;;
63112;SDS011;49206;48.020;21.378;2022-07-05T06:04:11;7.07;;;4.30;;
63112;SDS011;49206;48.020;21.378;2022-07-05T06:14:15;6.03;;;5.03;;
63112;SDS011;49206;48.020;21.378;2022-07-05T06:24:18;10.05;;;4.82;;
63112;SDS011;49206;48.020;21.378;2022-07-05T06:34:21;5.38;;;4.80;;
63112;SDS011;49206;48.020;21.378;2022-07-05T06:44:24;5.72;;;4.90;;
63112;SDS011;49206;48.020;21.378;2022-07-05T06:54:37;6.95;;;5.00;;
63112;SDS011;49206;48.020;21.378;2022-07-05T07:04:49;5.80;;;5.13;;
63112;SDS011;49206;48.020;21.378;2022-07-05T07:15:12;5.22;;;4.72;;
63112;SDS011;49206;48.020;21.378;2022-07-05T07:25:15;5.57;;;5.05;;
63112;SDS011;49206;48.020;21.378;2022-07-05T07:35:20;7.43;;;5.72;;
63112;SDS011;49206;48.020;21.378;2022-07-05T07:45:23;7.78;;;5.90;;
63112;SDS011;49206;48.020;21.378;2022-07-05T07:55:28;6.47;;;5.72;;
63112;SDS011;49206;48.020;21.378;2022-07-05T08:05:36;6.05;;;5.25;;
63112;SDS011;49206;48.020;21.378;2022-07-05T08:15:39;9.38;;;6.07;;
63112;SDS011;49206;48.020;21.378;2022-07-05T08:25:43;6.45;;;5.53;;
63112;SDS011;49206;48.020;21.378;2022-07-05T08:35:46;7.45;;;4.97;;
63112;SDS011;49206;48.020;21.378;2022-07-05T08:45:49;6.57;;;5.90;;
63112;SDS011;49206;48.020;21.378;2022-07-05T08:55:58;7.75;;;5.97;;
63112;SDS011;49206;48.020;21.378;2022-07-05T09:06:01;6.38;;;5.60;;
63112;SDS011;49206;48.020;21.378;2022-07-05T09:16:04;10.32;;;5.90;;
63112;SDS011;49206;48.020;21.378;2022-07-05T09:26:08;7.22;;;5.35;;
63112;SDS011;49206;48.020;21.378;2022-07-05T09:36:12;7.53;;;6.03;;
63112;SDS011;49206;48.020;21.378;2022-07-05T09:46:15;7.03;;;6.18;;
63112;SDS011;49206;48.020;21.378;2022-07-05T09:56:44;7.10;;;5.50;;
63112;SDS011;49206;48.020;21.378;2022-07-05T10:06:49;8.52;;;5.50;;
63112;SDS011;49206;48.020;21.378;2022-07-05T10:16:57;6.32;;;5.72;;
63112;SDS011;49206;48.020;21.378;2022-07-05T10:27:07;6.65;;;5.53;;
63112;SDS011;49206;48.020;21.378;2022-07-05T10:37:10;6.82;;;5.80;;
63112;SDS011;49206;48.020;21.378;2022-07-05T10:47:16;9.80;;;5.47;;
63112;SDS011;49206;48.020;21.378;2022-07-05T10:57:24;9.05;;;5.25;;
63112;SDS011;49206;48.020;21.378;2022-07-05T11:18:14;4.90;;;4.50;;
63112;SDS011;49206;48.020;21.378;2022-07-05T11:28:20;8.02;;;5.05;;
63112;SDS011;49206;48.020;21.378;2022-07-05T11:38:27;6.75;;;4.50;;
63112;SDS011;49206;48.020;21.378;2022-07-05T11:48:50;5.43;;;4.93;;
63112;SDS011;49206;48.020;21.378;2022-07-05T11:58:53;6.43;;;4.30;;
63112;SDS011;49206;48.020;21.378;2022-07-05T12:09:05;5.25;;;4.75;;
63112;SDS011;49206;48.020;21.378;2022-07-05T12:19:09;7.82;;;4.65;;
63112;SDS011;49206;48.020;21.378;2022-07-05T12:29:13;4.97;;;4.43;;
63112;SDS011;49206;48.020;21.378;2022-07-05T12:39:24;5.43;;;4.30;;
63112;SDS011;49206;48.020;21.378;2022-07-05T12:49:27;6.63;;;4.90;;
63112;SDS011;49206;48.020;21.378;2022-07-05T12:59:30;11.85;;;5.10;;
63112;SDS011;49206;48.020;21.378;2022-07-05T13:09:42;8.60;;;5.15;;
63112;SDS011;49206;48.020;21.378;2022-07-05T13:19:49;12.43;;;5.43;;
63112;SDS011;49206;48.020;21.378;2022-07-05T13:30:00;8.38;;;6.57;;
63112;SDS011;49206;48.020;21.378;2022-07-05T13:40:10;9.63;;;6.78;;
63112;SDS011;49206;48.020;21.378;2022-07-05T13:50:13;14.25;;;7.03;;
63112;SDS011;49206;48.020;21.378;2022-07-05T14:00:48;10.65;;;7.10;;
63112;SDS011;49206;48.020;21.378;2022-07-05T14:10:53;9.52;;;6.88;;
63112;SDS011;49206;48.020;21.378;2022-07-05T14:20:58;8.23;;;5.57;;
63112;SDS011;49206;48.020;21.378;2022-07-05T14:31:00;6.93;;;5.85;;
63112;SDS011;49206;48.020;21.378;2022-07-05T14:41:03;10.55;;;6.63;;
63112;SDS011;49206;48.020;21.378;2022-07-05T14:51:06;9.95;;;6.10;;
63112;SDS011;49206;48.020;21.378;2022-07-05T15:01:09;5.55;;;5.00;;
63112;SDS011;49206;48.020;21.378;2022-07-05T15:11:12;9.35;;;4.70;;
63112;SDS011;49206;48.020;21.378;2022-07-05T15:21:16;6.40;;;5.22;;
63112;SDS011;49206;48.020;21.378;2022-07-05T15:31:18;6.15;;;4.70;;
63112;SDS011;49206;48.020;21.378;2022-07-05T15:41:21;9.20;;;5.22;;
63112;SDS011;49206;48.020;21.378;2022-07-05T15:51:23;11.35;;;4.70;;
63112;SDS011;49206;48.020;21.378;2022-07-05T16:01:25;7.72;;;4.90;;
63112;SDS011;49206;48.020;21.378;2022-07-05T16:11:28;7.65;;;5.20;;
63112;SDS011;49206;48.020;21.378;2022-07-05T16:21:30;6.93;;;5.50;;
63112;SDS011;49206;48.020;21.378;2022-07-05T16:31:33;9.73;;;5.85;;
63112;SDS011;49206;48.020;21.378;2022-07-05T16:41:35;10.55;;;6.88;;
63112;SDS011;49206;48.020;21.378;2022-07-05T16:51:38;10.13;;;7.20;;
63112;SDS011;49206;48.020;21.378;2022-07-05T17:01:40;10.45;;;7.22;;
63112;SDS011;49206;48.020;21.378;2022-07-05T17:11:43;9.35;;;7.45;;
63112;SDS011;49206;48.020;21.378;2022-07-05T17:21:46;8.75;;;7.22;;
63112;SDS011;49206;48.020;21.378;2022-07-05T17:31:48;9.50;;;7.43;;
63112;SDS011;49206;48.020;21.378;2022-07-05T17:41:51;12.32;;;7.85;;
63112;SDS011;49206;48.020;21.378;2022-07-05T17:51:53;8.82;;;7.20;;
63112;SDS011;49206;48.020;21.378;2022-07-05T18:02:11;11.77;;;7.25;;
63112;SDS011;49206;48.020;21.378;2022-07-05T18:12:13;10.50;;;6.68;;
63112;SDS011;49206;48.020;21.378;2022-07-05T18:22:16;9.02;;;7.28;;
63112;SDS011;49206;48.020;21.378;2022-07-05T18:32:19;8.82;;;6.70;;
63112;SDS011;49206;48.020;21.378;2022-07-05T18:42:22;7.93;;;6.90;;
63112;SDS011;49206;48.020;21.378;2022-07-05T18:52:25;8.52;;;6.53;;
63112;SDS011;49206;48.020;21.378;2022-07-05T19:02:28;7.80;;;6.40;;
63112;SDS011;49206;48.020;21.378;2022-07-05T19:12:30;8.23;;;6.50;;
63112;SDS011;49206;48.020;21.378;2022-07-05T19:22:52;8.93;;;6.38;;
63112;SDS011;49206;48.020;21.378;2022-07-05T19:32:55;10.68;;;7.95;;
63112;SDS011;49206;48.020;21.378;2022-07-05T19:42:58;8.10;;;6.22;;
63112;SDS011;49206;48.020;21.378;2022-07-05T19:53:01;9.38;;;6.15;;
63112;SDS011;49206;48.020;21.378;2022-07-05T20:03:04;8.27;;;6.22;;
63112;SDS011;49206;48.020;21.378;2022-07-05T20:13:07;11.10;;;6.53;;
63112;SDS011;49206;48.020;21.378;2022-07-05T20:23:10;8.65;;;7.75;;
63112;SDS011;49206;48.020;21.378;2022-07-05T20:33:13;8.75;;;6.50;;
63112;SDS011;49206;48.020;21.378;2022-07-05T20:43:16;8.18;;;6.32;;
63112;SDS011;49206;48.020;21.378;2022-07-05T20:53:21;9.68;;;6.13;;
63112;SDS011;49206;48.020;21.378;2022-07-05T21:03:24;6.20;;;5.53;;
63112;SDS011;49206;48.020;21.378;2022-07-05T21:13:28;6.35;;;5.43;;
63112;SDS011;49206;48.020;21.378;2022-07-05T21:23:31;6.13;;;5.53;;
63112;SDS011;49206;48.020;21.378;2022-07-05T21:33:35;8.13;;;6.28;;
63112;SDS011;49206;48.020;21.378;2022-07-05T21:43:37;6.47;;;5.75;;
63112;SDS011;49206;48.020;21.378;2022-07-05T21:53:42;6.95;;;5.78;;
63112;SDS011;49206;48.020;21.378;2022-07-05T22:03:45;5.82;;;5.22;;
63112;SDS011;49206;48.020;21.378;2022-07-05T22:14:06;6.32;;;5.72;;
63112;SDS011;49206;48.020;21.378;2022-07-05T22:24:09;6.43;;;5.63;;
63112;SDS011;49206;48.020;21.378;2022-07-05T22:34:11;8.13;;;5.57;;
63112;SDS011;49206;48.020;21.378;2022-07-05T22:44:14;7.55;;;6.20;;
63112;SDS011;49206;48.020;21.378;2022-07-05T22:54:17;8.68;;;5.20;;
63112;SDS011;49206;48.020;21.378;2022-07-05T23:04:20;6.85;;;5.57;;
63112;SDS011;49206;48.020;21.378;2022-07-05T23:14:25;7.53;;;5.47;;
63112;SDS011;49206;48.020;21.378;2022-07-05T23:24:28;7.13;;;5.32;;
63112;SDS011;49206;48.020;21.378;2022-07-05T23:34:54;5.60;;;4.95;;
63112;SDS011;49206;48.020;21.378;2022-07-05T23:44:57;5.65;;;4.95;;
63112;SDS011;49206;48.020;21.378;2022-07-05T23:55:00;6.55;;;5.72;;
